sensor_id;sensor_type;location;lat;lon;timestamp;pressure;altitude;pressure_sealevel;temperature;humidity
57000;BME280;42891;50.006;21.964;2023-07-31T00:00:36;50918.53;;;-146.02;76.67
57000;BME280;42891;50.006;21.964;2023-07-31T00:04:36;50900.50;;;-146.02;76.72
57000;BME280;42891;50.006;21.964;2023-07-31T00:08:36;50910.53;;;-146.02;76.59
57000;BME280;42891;50.006;21.964;2023-07-31T00:12:38;50878.47;;;-146.02;76.64
57000;BME280;42891;50.006;21.964;2023-07-31T00:16:38;50896.50;;;-146.02;76.77
57000;BME280;42891;50.006;21.964;2023-07-31T00:20:39;50884.47;;;-146.02;76.49
57000;BME280;42891;50.006;21.964;2023-07-31T00:24:39;50902.50;;;-146.02;77.33
57000;BME280;42891;50.006;21.964;2023-07-31T00:28:39;50922.53;;;-146.02;77.35
57000;BME280;42891;50.006;21.964;2023-07-31T00:32:40;50936.56;;;-146.02;77.92
57000;BME280;42891;50.006;21.964;2023-07-31T00:36:40;50934.56;;;-146.02;78.28
57000;BME280;42891;50.006;21.964;2023-07-31T00:40:40;50946.59;;;-146.02;78.19
57000;BME280;42891;50.006;21.964;2023-07-31T00:44:41;50916.53;;;-146.02;78.32
57000;BME280;42891;50.006;21.964;2023-07-31T00:48:41;50906.50;;;-146.02;78.89
57000;BME280;42891;50.006;21.964;2023-07-31T00:52:42;50888.47;;;-146.02;78.17
57000;BME280;42891;50.006;21.964;2023-07-31T00:56:47;50898.50;;;-146.02;78.33
57000;BME280;42891;50.006;21.964;2023-07-31T01:00:49;50934.56;;;-146.02;78.37
57000;BME280;42891;50.006;21.964;2023-07-31T01:04:50;50904.50;;;-146.02;78.63
57000;BME280;42891;50.006;21.964;2023-07-31T01:12:53;50910.53;;;-146.02;78.49
57000;BME280;42891;50.006;21.964;2023-07-31T01:16:54;50902.50;;;-146.02;78.31
57000;BME280;42891;50.006;21.964;2023-07-31T01:21:30;50930.56;;;-146.02;78.06
57000;BME280;42891;50.006;21.964;2023-07-31T01:30:16;50964.63;;;-146.02;78.31
57000;BME280;42891;50.006;21.964;2023-07-31T01:34:20;50912.53;;;-146.02;78.50
57000;BME280;42891;50.006;21.964;2023-07-31T01:38:22;50946.59;;;-146.02;78.47
57000;BME280;42891;50.006;21.964;2023-07-31T01:42:22;50948.59;;;-146.02;78.46
57000;BME280;42891;50.006;21.964;2023-07-31T01:46:22;50934.56;;;-146.02;78.79
57000;BME280;42891;50.006;21.964;2023-07-31T01:50:23;50956.59;;;-146.02;78.82
57000;BME280;42891;50.006;21.964;2023-07-31T01:54:23;50968.63;;;-146.02;79.17
57000;BME280;42891;50.006;21.964;2023-07-31T01:58:23;50962.63;;;-146.02;78.91
57000;BME280;42891;50.006;21.964;2023-07-31T02:02:24;50932.56;;;-146.02;79.21
57000;BME280;42891;50.006;21.964;2023-07-31T02:06:24;50944.59;;;-146.02;78.99
57000;BME280;42891;50.006;21.964;2023-07-31T02:10:24;50948.59;;;-146.02;79.30
57000;BME280;42891;50.006;21.964;2023-07-31T02:14:25;50970.63;;;-146.02;79.20
57000;BME280;42891;50.006;21.964;2023-07-31T02:18:25;50920.53;;;-146.02;79.14
57000;BME280;42891;50.006;21.964;2023-07-31T02:22:26;50950.59;;;-146.02;78.27
57000;BME280;42891;50.006;21.964;2023-07-31T02:26:26;50962.63;;;-146.02;78.12
57000;BME280;42891;50.006;21.964;2023-07-31T02:30:26;50932.56;;;-146.02;78.31
57000;BME280;42891;50.006;21.964;2023-07-31T02:34:26;50976.63;;;-146.02;78.84
57000;BME280;42891;50.006;21.964;2023-07-31T02:38:27;50978.66;;;-146.02;78.83
57000;BME280;42891;50.006;21.964;2023-07-31T02:42:27;50958.59;;;-146.02;78.95
57000;BME280;42891;50.006;21.964;2023-07-31T02:46:28;50924.53;;;-146.02;79.05
57000;BME280;42891;50.006;21.964;2023-07-31T02:50:28;51000.69;;;-146.02;79.30
57000;BME280;42891;50.006;21.964;2023-07-31T02:54:28;50916.53;;;-146.02;79.42
57000;BME280;42891;50.006;21.964;2023-07-31T02:58:29;50966.63;;;-146.02;79.25
57000;BME280;42891;50.006;21.964;2023-07-31T03:02:29;50968.63;;;-146.02;79.52
57000;BME280;42891;50.006;21.964;2023-07-31T03:06:29;50932.56;;;-146.02;79.45
57000;BME280;42891;50.006;21.964;2023-07-31T03:10:30;50944.59;;;-146.02;79.48
57000;BME280;42891;50.006;21.964;2023-07-31T03:14:30;50946.59;;;-146.02;79.37
57000;BME280;42891;50.006;21.964;2023-07-31T03:18:31;50940.56;;;-146.02;79.42
57000;BME280;42891;50.006;21.964;2023-07-31T03:22:31;50924.53;;;-146.02;79.04
57000;BME280;42891;50.006;21.964;2023-07-31T03:26:32;50974.63;;;-146.02;78.92
57000;BME280;42891;50.006;21.964;2023-07-31T03:30:35;50938.56;;;-146.02;79.03
57000;BME280;42891;50.006;21.964;2023-07-31T03:34:37;50916.53;;;-146.02;79.71
57000;BME280;42891;50.006;21.964;2023-07-31T03:38:37;50976.63;;;-146.02;79.63
57000;BME280;42891;50.006;21.964;2023-07-31T03:42:38;50942.56;;;-146.02;80.27
57000;BME280;42891;50.006;21.964;2023-07-31T03:46:38;50948.59;;;-146.02;80.83
57000;BME280;42891;50.006;21.964;2023-07-31T03:50:38;50922.53;;;-146.02;80.81
57000;BME280;42891;50.006;21.964;2023-07-31T03:54:39;50934.56;;;-146.02;80.95
57000;BME280;42891;50.006;21.964;2023-07-31T03:58:39;50944.59;;;-146.02;81.18
57000;BME280;42891;50.006;21.964;2023-07-31T04:02:39;50956.59;;;-146.02;81.07
57000;BME280;42891;50.006;21.964;2023-07-31T04:06:40;50986.66;;;-146.02;81.61
57000;BME280;42891;50.006;21.964;2023-07-31T04:10:40;50960.59;;;-146.02;81.73
57000;BME280;42891;50.006;21.964;2023-07-31T04:14:40;50944.59;;;-146.02;81.79
57000;BME280;42891;50.006;21.964;2023-07-31T04:18:41;50980.66;;;-146.02;81.90
57000;BME280;42891;50.006;21.964;2023-07-31T04:22:41;50982.66;;;-146.02;82.07
57000;BME280;42891;50.006;21.964;2023-07-31T04:26:41;50966.63;;;-146.02;82.00
57000;BME280;42891;50.006;21.964;2023-07-31T04:30:42;50954.59;;;-146.02;82.37
57000;BME280;42891;50.006;21.964;2023-07-31T04:34:43;50948.59;;;-146.02;82.84
57000;BME280;42891;50.006;21.964;2023-07-31T04:38:43;50968.63;;;-146.02;82.49
57000;BME280;42891;50.006;21.964;2023-07-31T04:42:43;50928.56;;;-146.02;82.09
57000;BME280;42891;50.006;21.964;2023-07-31T04:46:44;51020.72;;;-146.02;81.15
57000;BME280;42891;50.006;21.964;2023-07-31T04:50:44;50934.56;;;-146.02;80.79
57000;BME280;42891;50.006;21.964;2023-07-31T04:54:45;50976.63;;;-146.02;79.88
57000;BME280;42891;50.006;21.964;2023-07-31T04:58:45;50948.59;;;-146.02;79.86
57000;BME280;42891;50.006;21.964;2023-07-31T05:02:45;50970.63;;;-146.02;80.06
57000;BME280;42891;50.006;21.964;2023-07-31T05:06:46;50928.56;;;-146.02;79.93
57000;BME280;42891;50.006;21.964;2023-07-31T05:10:46;50928.56;;;-146.02;79.57
57000;BME280;42891;50.006;21.964;2023-07-31T05:14:46;50944.59;;;-146.02;79.52
57000;BME280;42891;50.006;21.964;2023-07-31T05:18:47;50954.59;;;-146.02;78.90
57000;BME280;42891;50.006;21.964;2023-07-31T05:22:47;50928.56;;;-146.02;78.76
57000;BME280;42891;50.006;21.964;2023-07-31T05:26:48;50928.56;;;-146.02;78.98
57000;BME280;42891;50.006;21.964;2023-07-31T05:30:48;50918.53;;;-146.02;78.66
57000;BME280;42891;50.006;21.964;2023-07-31T05:34:53;50952.59;;;-146.02;78.67
57000;BME280;42891;50.006;21.964;2023-07-31T05:38:53;50948.59;;;-146.02;77.82
57000;BME280;42891;50.006;21.964;2023-07-31T05:42:54;50924.53;;;-146.02;76.97
57000;BME280;42891;50.006;21.964;2023-07-31T05:46:54;50900.50;;;-146.02;77.31
57000;BME280;42891;50.006;21.964;2023-07-31T05:50:54;50962.63;;;-146.02;77.27
57000;BME280;42891;50.006;21.964;2023-07-31T05:54:55;50948.59;;;-146.02;76.61
57000;BME280;42891;50.006;21.964;2023-07-31T05:58:55;50954.59;;;-146.02;76.83
57000;BME280;42891;50.006;21.964;2023-07-31T06:02:57;50932.56;;;-146.02;76.92
57000;BME280;42891;50.006;21.964;2023-07-31T06:06:57;50954.59;;;-146.02;76.54
57000;BME280;42891;50.006;21.964;2023-07-31T06:10:57;50908.50;;;-146.02;76.60
57000;BME280;42891;50.006;21.964;2023-07-31T06:14:58;50948.59;;;-146.02;75.77
57000;BME280;42891;50.006;21.964;2023-07-31T06:18:58;50936.56;;;-146.02;75.93
57000;BME280;42891;50.006;21.964;2023-07-31T06:22:59;50940.56;;;-146.02;75.74
57000;BME280;42891;50.006;21.964;2023-07-31T06:26:59;50960.59;;;-146.02;75.39
57000;BME280;42891;50.006;21.964;2023-07-31T06:30:59;50918.53;;;-146.02;75.23
57000;BME280;42891;50.006;21.964;2023-07-31T06:35:00;50930.56;;;-146.02;74.85
57000;BME280;42891;50.006;21.964;2023-07-31T06:39:01;50944.59;;;-146.02;74.97
57000;BME280;42891;50.006;21.964;2023-07-31T06:43:01;50936.56;;;-146.02;75.67
57000;BME280;42891;50.006;21.964;2023-07-31T06:47:07;50912.53;;;-146.02;75.10
57000;BME280;42891;50.006;21.964;2023-07-31T06:51:08;50956.59;;;-146.02;75.23
57000;BME280;42891;50.006;21.964;2023-07-31T06:55:20;50940.56;;;-146.02;75.53
57000;BME280;42891;50.006;21.964;2023-07-31T06:59:20;50934.56;;;-146.02;74.25
57000;BME280;42891;50.006;21.964;2023-07-31T07:03:21;50920.53;;;-146.02;74.33
57000;BME280;42891;50.006;21.964;2023-07-31T07:07:21;50908.50;;;-146.02;74.60
57000;BME280;42891;50.006;21.964;2023-07-31T07:11:21;50924.53;;;-146.02;74.68
57000;BME280;42891;50.006;21.964;2023-07-31T07:15:22;50926.53;;;-146.02;73.73
57000;BME280;42891;50.006;21.964;2023-07-31T07:19:22;50934.56;;;-146.02;72.67
57000;BME280;42891;50.006;21.964;2023-07-31T07:23:23;50930.56;;;-146.02;72.86
57000;BME280;42891;50.006;21.964;2023-07-31T07:27:23;50922.53;;;-146.02;72.37
57000;BME280;42891;50.006;21.964;2023-07-31T07:31:23;50944.59;;;-146.02;73.50
57000;BME280;42891;50.006;21.964;2023-07-31T07:35:24;50922.53;;;-146.02;73.00
57000;BME280;42891;50.006;21.964;2023-07-31T07:39:24;50928.56;;;-146.02;73.29
57000;BME280;42891;50.006;21.964;2023-07-31T07:43:25;50936.56;;;-146.02;72.37
57000;BME280;42891;50.006;21.964;2023-07-31T07:47:25;50904.50;;;-146.02;72.76
57000;BME280;42891;50.006;21.964;2023-07-31T07:51:25;50912.53;;;-146.02;72.53
57000;BME280;42891;50.006;21.964;2023-07-31T07:55:26;50936.56;;;-146.02;72.76
57000;BME280;42891;50.006;21.964;2023-07-31T07:59:26;50906.50;;;-146.02;73.28
57000;BME280;42891;50.006;21.964;2023-07-31T08:03:26;50920.53;;;-146.02;73.12
57000;BME280;42891;50.006;21.964;2023-07-31T08:07:27;50902.50;;;-146.02;73.15
57000;BME280;42891;50.006;21.964;2023-07-31T08:11:27;50920.53;;;-146.02;72.84
57000;BME280;42891;50.006;21.964;2023-07-31T08:15:28;50892.47;;;-146.02;73.02
57000;BME280;42891;50.006;21.964;2023-07-31T08:19:28;50940.56;;;-146.02;73.14
57000;BME280;42891;50.006;21.964;2023-07-31T08:23:28;50930.56;;;-146.02;71.97
57000;BME280;42891;50.006;21.964;2023-07-31T08:27:29;50890.47;;;-146.02;72.05
57000;BME280;42891;50.006;21.964;2023-07-31T08:31:29;50942.56;;;-146.02;71.13
57000;BME280;42891;50.006;21.964;2023-07-31T08:35:29;50940.56;;;-146.02;70.50
57000;BME280;42891;50.006;21.964;2023-07-31T08:39:30;50906.50;;;-146.02;71.76
57000;BME280;42891;50.006;21.964;2023-07-31T08:43:32;50940.56;;;-146.02;72.73
57000;BME280;42891;50.006;21.964;2023-07-31T08:47:32;50940.56;;;-146.02;69.40
57000;BME280;42891;50.006;21.964;2023-07-31T08:51:34;50890.47;;;-146.02;71.26
57000;BME280;42891;50.006;21.964;2023-07-31T08:55:36;50912.53;;;-146.02;70.05
57000;BME280;42891;50.006;21.964;2023-07-31T08:59:38;50900.50;;;-146.02;68.95
57000;BME280;42891;50.006;21.964;2023-07-31T09:03:39;50890.47;;;-146.02;69.61
57000;BME280;42891;50.006;21.964;2023-07-31T09:07:40;50910.53;;;-146.02;68.39
57000;BME280;42891;50.006;21.964;2023-07-31T09:11:42;50904.50;;;-146.02;67.24
57000;BME280;42891;50.006;21.964;2023-07-31T09:15:45;50898.50;;;-146.02;67.77
57000;BME280;42891;50.006;21.964;2023-07-31T09:19:46;50884.47;;;-146.02;68.00
57000;BME280;42891;50.006;21.964;2023-07-31T09:23:47;50918.53;;;-146.02;68.00
57000;BME280;42891;50.006;21.964;2023-07-31T09:28:03;50910.53;;;-146.02;68.07
57000;BME280;42891;50.006;21.964;2023-07-31T09:32:04;50870.44;;;-146.02;67.19
57000;BME280;42891;50.006;21.964;2023-07-31T09:36:04;50892.47;;;-146.02;67.54
57000;BME280;42891;50.006;21.964;2023-07-31T09:40:05;50908.50;;;-146.02;66.34
57000;BME280;42891;50.006;21.964;2023-07-31T09:44:06;50870.44;;;-146.02;65.67
57000;BME280;42891;50.006;21.964;2023-07-31T09:48:16;50898.50;;;-146.02;64.53
57000;BME280;42891;50.006;21.964;2023-07-31T09:52:17;50906.50;;;-146.02;64.21
57000;BME280;42891;50.006;21.964;2023-07-31T09:56:18;50880.47;;;-146.02;65.92
57000;BME280;42891;50.006;21.964;2023-07-31T10:00:21;50880.47;;;-146.02;66.25
57000;BME280;42891;50.006;21.964;2023-07-31T10:04:27;50846.41;;;-146.02;66.63
57000;BME280;42891;50.006;21.964;2023-07-31T10:08:30;50894.50;;;-146.02;65.70
57000;BME280;42891;50.006;21.964;2023-07-31T10:12:33;50850.41;;;-146.02;63.72
57000;BME280;42891;50.006;21.964;2023-07-31T10:16:35;50878.47;;;-146.02;63.17
57000;BME280;42891;50.006;21.964;2023-07-31T10:20:36;50880.47;;;-146.02;63.81
57000;BME280;42891;50.006;21.964;2023-07-31T10:24:36;50890.47;;;-146.02;62.50
57000;BME280;42891;50.006;21.964;2023-07-31T10:28:38;50876.44;;;-146.02;62.60
57000;BME280;42891;50.006;21.964;2023-07-31T10:32:40;50898.50;;;-146.02;63.72
57000;BME280;42891;50.006;21.964;2023-07-31T10:36:41;50860.44;;;-146.02;63.68
57000;BME280;42891;50.006;21.964;2023-07-31T10:40:42;50918.53;;;-146.02;62.60
57000;BME280;42891;50.006;21.964;2023-07-31T10:44:46;50874.44;;;-146.02;62.97
57000;BME280;42891;50.006;21.964;2023-07-31T10:48:57;50864.44;;;-146.02;63.15
57000;BME280;42891;50.006;21.964;2023-07-31T10:52:59;50856.41;;;-146.02;62.71
57000;BME280;42891;50.006;21.964;2023-07-31T10:57:01;50882.47;;;-146.02;61.48
57000;BME280;42891;50.006;21.964;2023-07-31T11:01:05;50868.44;;;-146.02;60.20
57000;BME280;42891;50.006;21.964;2023-07-31T11:05:07;50866.44;;;-146.02;61.16
57000;BME280;42891;50.006;21.964;2023-07-31T11:09:13;50874.44;;;-146.02;60.79
57000;BME280;42891;50.006;21.964;2023-07-31T11:13:13;50846.41;;;-146.02;60.65
57000;BME280;42891;50.006;21.964;2023-07-31T11:17:13;50832.38;;;-146.02;61.37
57000;BME280;42891;50.006;21.964;2023-07-31T11:21:15;50852.41;;;-146.02;59.21
57000;BME280;42891;50.006;21.964;2023-07-31T11:25:16;50852.41;;;-146.02;57.07
57000;BME280;42891;50.006;21.964;2023-07-31T11:29:16;50880.47;;;-146.02;57.74
57000;BME280;42891;50.006;21.964;2023-07-31T11:33:17;50830.38;;;-146.02;59.15
57000;BME280;42891;50.006;21.964;2023-07-31T11:37:17;50830.38;;;-146.02;58.08
57000;BME280;42891;50.006;21.964;2023-07-31T11:41:19;50824.34;;;-146.02;57.37
57000;BME280;42891;50.006;21.964;2023-07-31T11:45:19;50854.41;;;-146.02;57.02
57000;BME280;42891;50.006;21.964;2023-07-31T11:49:20;50848.41;;;-146.02;56.75
57000;BME280;42891;50.006;21.964;2023-07-31T11:53:26;50848.41;;;-146.02;56.30
57000;BME280;42891;50.006;21.964;2023-07-31T11:57:28;50868.44;;;-146.02;56.62
57000;BME280;42891;50.006;21.964;2023-07-31T12:01:29;50832.38;;;-146.02;57.96
57000;BME280;42891;50.006;21.964;2023-07-31T12:05:29;50810.34;;;-146.02;57.27
57000;BME280;42891;50.006;21.964;2023-07-31T12:09:30;50822.34;;;-146.02;56.02
57000;BME280;42891;50.006;21.964;2023-07-31T12:13:31;50848.41;;;-146.02;58.04
57000;BME280;42891;50.006;21.964;2023-07-31T12:17:32;50816.34;;;-146.02;56.38
57000;BME280;42891;50.006;21.964;2023-07-31T12:21:32;50810.34;;;-146.02;54.98
57000;BME280;42891;50.006;21.964;2023-07-31T12:25:33;50822.34;;;-146.02;55.56
57000;BME280;42891;50.006;21.964;2023-07-31T12:29:36;50804.31;;;-146.02;54.82
57000;BME280;42891;50.006;21.964;2023-07-31T12:33:38;50800.31;;;-146.02;55.93
57000;BME280;42891;50.006;21.964;2023-07-31T12:37:39;50844.41;;;-146.02;56.03
57000;BME280;42891;50.006;21.964;2023-07-31T12:41:39;50804.31;;;-146.02;54.44
57000;BME280;42891;50.006;21.964;2023-07-31T12:45:39;50804.31;;;-146.02;55.35
57000;BME280;42891;50.006;21.964;2023-07-31T12:49:40;50786.28;;;-146.02;53.62
57000;BME280;42891;50.006;21.964;2023-07-31T12:53:40;50844.41;;;-146.02;53.83
57000;BME280;42891;50.006;21.964;2023-07-31T12:57:40;50816.34;;;-146.02;53.39
57000;BME280;42891;50.006;21.964;2023-07-31T13:01:42;50782.28;;;-146.02;53.77
57000;BME280;42891;50.006;21.964;2023-07-31T13:05:42;50782.28;;;-146.02;53.61
57000;BME280;42891;50.006;21.964;2023-07-31T13:09:42;50836.38;;;-146.02;54.32
57000;BME280;42891;50.006;21.964;2023-07-31T13:13:43;50836.38;;;-146.02;53.50
57000;BME280;42891;50.006;21.964;2023-07-31T13:17:43;50812.34;;;-146.02;54.54
57000;BME280;42891;50.006;21.964;2023-07-31T13:21:44;50796.31;;;-146.02;55.31
57000;BME280;42891;50.006;21.964;2023-07-31T13:25:44;50820.34;;;-146.02;55.82
57000;BME280;42891;50.006;21.964;2023-07-31T13:29:45;50802.31;;;-146.02;53.81
57000;BME280;42891;50.006;21.964;2023-07-31T13:33:45;50774.28;;;-146.02;53.64
57000;BME280;42891;50.006;21.964;2023-07-31T13:37:46;50798.31;;;-146.02;53.59
57000;BME280;42891;50.006;21.964;2023-07-31T13:41:46;50782.28;;;-146.02;52.04
57000;BME280;42891;50.006;21.964;2023-07-31T13:45:46;50768.25;;;-146.02;52.49
57000;BME280;42891;50.006;21.964;2023-07-31T13:49:47;50820.34;;;-146.02;50.87
57000;BME280;42891;50.006;21.964;2023-07-31T13:53:47;50792.31;;;-146.02;50.55
57000;BME280;42891;50.006;21.964;2023-07-31T13:57:48;50802.31;;;-146.02;53.01
57000;BME280;42891;50.006;21.964;2023-07-31T14:01:49;50782.28;;;-146.02;52.50
57000;BME280;42891;50.006;21.964;2023-07-31T14:05:51;50788.28;;;-146.02;51.88
57000;BME280;42891;50.006;21.964;2023-07-31T14:09:52;50780.28;;;-146.02;50.39
57000;BME280;42891;50.006;21.964;2023-07-31T14:13:52;50748.22;;;-146.02;47.69
57000;BME280;42891;50.006;21.964;2023-07-31T14:17:52;50802.31;;;-146.02;45.95
57000;BME280;42891;50.006;21.964;2023-07-31T14:21:53;50752.22;;;-146.02;47.33
57000;BME280;42891;50.006;21.964;2023-07-31T14:25:53;50776.28;;;-146.02;44.66
57000;BME280;42891;50.006;21.964;2023-07-31T14:29:54;50750.22;;;-146.02;44.90
57000;BME280;42891;50.006;21.964;2023-07-31T14:33:54;50788.28;;;-146.02;45.50
57000;BME280;42891;50.006;21.964;2023-07-31T14:37:54;50762.25;;;-146.02;46.51
57000;BME280;42891;50.006;21.964;2023-07-31T14:41:55;50792.31;;;-146.02;44.94
57000;BME280;42891;50.006;21.964;2023-07-31T14:45:55;50776.28;;;-146.02;43.71
57000;BME280;42891;50.006;21.964;2023-07-31T14:49:59;50778.28;;;-146.02;44.47
57000;BME280;42891;50.006;21.964;2023-07-31T14:54:00;50756.22;;;-146.02;41.60
57000;BME280;42891;50.006;21.964;2023-07-31T14:58:00;50786.28;;;-146.02;41.49
57000;BME280;42891;50.006;21.964;2023-07-31T15:02:01;50760.25;;;-146.02;40.27
57000;BME280;42891;50.006;21.964;2023-07-31T15:06:01;50734.19;;;-146.02;40.19
57000;BME280;42891;50.006;21.964;2023-07-31T15:10:02;50768.25;;;-146.02;40.33
57000;BME280;42891;50.006;21.964;2023-07-31T15:14:03;50748.22;;;-146.02;41.80
57000;BME280;42891;50.006;21.964;2023-07-31T15:18:03;50736.19;;;-146.02;40.78
57000;BME280;42891;50.006;21.964;2023-07-31T15:22:04;50796.31;;;-146.02;41.41
57000;BME280;42891;50.006;21.964;2023-07-31T15:26:04;50752.22;;;-146.02;40.49
57000;BME280;42891;50.006;21.964;2023-07-31T15:30:05;50766.25;;;-146.02;40.43
57000;BME280;42891;50.006;21.964;2023-07-31T15:34:05;50756.22;;;-146.02;40.44
57000;BME280;42891;50.006;21.964;2023-07-31T15:38:06;50776.28;;;-146.02;40.31
57000;BME280;42891;50.006;21.964;2023-07-31T15:42:06;50768.25;;;-146.02;40.78
57000;BME280;42891;50.006;21.964;2023-07-31T15:46:09;50724.19;;;-146.02;40.27
57000;BME280;42891;50.006;21.964;2023-07-31T15:50:09;50736.19;;;-146.02;39.67
57000;BME280;42891;50.006;21.964;2023-07-31T15:54:10;50718.16;;;-146.02;40.53
57000;BME280;42891;50.006;21.964;2023-07-31T15:58:10;50704.13;;;-146.02;38.43
57000;BME280;42891;50.006;21.964;2023-07-31T16:02:11;50744.22;;;-146.02;38.98
57000;BME280;42891;50.006;21.964;2023-07-31T16:06:11;50690.13;;;-146.02;38.91
57000;BME280;42891;50.006;21.964;2023-07-31T16:10:12;50740.22;;;-146.02;39.57
57000;BME280;42891;50.006;21.964;2023-07-31T16:14:12;50724.19;;;-146.02;39.22
57000;BME280;42891;50.006;21.964;2023-07-31T16:18:12;50746.22;;;-146.02;39.48
57000;BME280;42891;50.006;21.964;2023-07-31T16:22:13;50736.19;;;-146.02;38.92
57000;BME280;42891;50.006;21.964;2023-07-31T16:26:13;50724.19;;;-146.02;39.58
57000;BME280;42891;50.006;21.964;2023-07-31T16:30:13;50732.19;;;-146.02;39.55
57000;BME280;42891;50.006;21.964;2023-07-31T16:34:14;50734.19;;;-146.02;39.87
57000;BME280;42891;50.006;21.964;2023-07-31T16:38:14;50730.19;;;-146.02;40.25
57000;BME280;42891;50.006;21.964;2023-07-31T16:42:14;50744.22;;;-146.02;40.00
57000;BME280;42891;50.006;21.964;2023-07-31T16:46:15;50768.25;;;-146.02;40.96
57000;BME280;42891;50.006;21.964;2023-07-31T16:50:15;50798.31;;;-146.02;41.46
57000;BME280;42891;50.006;21.964;2023-07-31T16:54:16;50744.22;;;-146.02;41.10
57000;BME280;42891;50.006;21.964;2023-07-31T16:58:16;50736.19;;;-146.02;41.80
57000;BME280;42891;50.006;21.964;2023-07-31T17:02:17;50744.22;;;-146.02;41.39
57000;BME280;42891;50.006;21.964;2023-07-31T17:06:17;50760.25;;;-146.02;41.78
57000;BME280;42891;50.006;21.964;2023-07-31T17:10:17;50784.28;;;-146.02;42.56
57000;BME280;42891;50.006;21.964;2023-07-31T17:14:18;50764.25;;;-146.02;42.15
57000;BME280;42891;50.006;21.964;2023-07-31T17:18:18;50754.22;;;-146.02;42.28
57000;BME280;42891;50.006;21.964;2023-07-31T17:22:18;50754.22;;;-146.02;43.12
57000;BME280;42891;50.006;21.964;2023-07-31T17:26:19;50800.31;;;-146.02;43.19
57000;BME280;42891;50.006;21.964;2023-07-31T17:30:20;50794.31;;;-146.02;43.81
57000;BME280;42891;50.006;21.964;2023-07-31T17:34:20;50738.19;;;-146.02;44.40
57000;BME280;42891;50.006;21.964;2023-07-31T17:38:20;50772.25;;;-146.02;46.22
57000;BME280;42891;50.006;21.964;2023-07-31T17:42:20;50750.22;;;-146.02;46.76
57000;BME280;42891;50.006;21.964;2023-07-31T17:46:21;50778.28;;;-146.02;48.44
57000;BME280;42891;50.006;21.964;2023-07-31T17:50:22;50804.31;;;-146.02;48.64
57000;BME280;42891;50.006;21.964;2023-07-31T17:54:22;50790.28;;;-146.02;49.40
57000;BME280;42891;50.006;21.964;2023-07-31T17:58:25;50792.31;;;-146.02;49.68
57000;BME280;42891;50.006;21.964;2023-07-31T18:02:25;50784.28;;;-146.02;49.85
57000;BME280;42891;50.006;21.964;2023-07-31T18:06:26;50760.25;;;-146.02;48.21
57000;BME280;42891;50.006;21.964;2023-07-31T18:10:26;50792.31;;;-146.02;48.16
57000;BME280;42891;50.006;21.964;2023-07-31T18:14:26;50748.22;;;-146.02;49.29
57000;BME280;42891;50.006;21.964;2023-07-31T18:18:28;50804.31;;;-146.02;49.29
57000;BME280;42891;50.006;21.964;2023-07-31T18:22:28;50800.31;;;-146.02;49.69
57000;BME280;42891;50.006;21.964;2023-07-31T18:26:28;50794.31;;;-146.02;49.60
57000;BME280;42891;50.006;21.964;2023-07-31T18:30:29;50798.31;;;-146.02;50.29
57000;BME280;42891;50.006;21.964;2023-07-31T18:34:30;50786.28;;;-146.02;50.77
57000;BME280;42891;50.006;21.964;2023-07-31T18:38:30;50776.28;;;-146.02;52.07
57000;BME280;42891;50.006;21.964;2023-07-31T18:42:32;50784.28;;;-146.02;53.29
57000;BME280;42891;50.006;21.964;2023-07-31T18:46:32;50822.34;;;-146.02;54.40
57000;BME280;42891;50.006;21.964;2023-07-31T18:50:32;50812.34;;;-146.02;54.93
57000;BME280;42891;50.006;21.964;2023-07-31T18:54:33;50836.38;;;-146.02;55.93
57000;BME280;42891;50.006;21.964;2023-07-31T18:58:33;50828.38;;;-146.02;55.77
57000;BME280;42891;50.006;21.964;2023-07-31T19:02:33;50826.38;;;-146.02;55.88
57000;BME280;42891;50.006;21.964;2023-07-31T19:06:34;50806.31;;;-146.02;55.63
57000;BME280;42891;50.006;21.964;2023-07-31T19:10:36;50826.38;;;-146.02;56.12
57000;BME280;42891;50.006;21.964;2023-07-31T19:14:36;50856.41;;;-146.02;58.13
57000;BME280;42891;50.006;21.964;2023-07-31T19:18:36;50808.34;;;-146.02;58.34
57000;BME280;42891;50.006;21.964;2023-07-31T19:22:37;50868.44;;;-146.02;59.76
57000;BME280;42891;50.006;21.964;2023-07-31T19:26:37;50846.41;;;-146.02;59.63
57000;BME280;42891;50.006;21.964;2023-07-31T19:30:37;50810.34;;;-146.02;59.93
57000;BME280;42891;50.006;21.964;2023-07-31T19:34:39;50880.47;;;-146.02;60.32
57000;BME280;42891;50.006;21.964;2023-07-31T19:38:39;50822.34;;;-146.02;60.27
57000;BME280;42891;50.006;21.964;2023-07-31T19:42:40;50870.44;;;-146.02;61.43
57000;BME280;42891;50.006;21.964;2023-07-31T19:46:40;50858.41;;;-146.02;61.37
57000;BME280;42891;50.006;21.964;2023-07-31T19:50:41;50824.34;;;-146.02;61.04
57000;BME280;42891;50.006;21.964;2023-07-31T19:54:41;50890.47;;;-146.02;62.10
57000;BME280;42891;50.006;21.964;2023-07-31T19:58:41;50860.44;;;-146.02;63.06
57000;BME280;42891;50.006;21.964;2023-07-31T20:02:43;50830.38;;;-146.02;62.66
57000;BME280;42891;50.006;21.964;2023-07-31T20:06:43;50870.44;;;-146.02;62.25
57000;BME280;42891;50.006;21.964;2023-07-31T20:10:44;50872.44;;;-146.02;62.94
57000;BME280;42891;50.006;21.964;2023-07-31T20:14:44;50878.47;;;-146.02;61.55
57000;BME280;42891;50.006;21.964;2023-07-31T20:18:45;50860.44;;;-146.02;61.46
57000;BME280;42891;50.006;21.964;2023-07-31T20:22:45;50846.41;;;-146.02;61.77
57000;BME280;42891;50.006;21.964;2023-07-31T20:26:46;50866.44;;;-146.02;62.48
57000;BME280;42891;50.006;21.964;2023-07-31T20:30:46;50864.44;;;-146.02;62.66
57000;BME280;42891;50.006;21.964;2023-07-31T20:34:47;50852.41;;;-146.02;62.78